sensor_id;sensor_type;location;lat;lon;timestamp;pressure;altitude;pressure_sealevel;temperature;humidity
71109;BME280;59614;51.012;-1.648;2022-12-18T00:01:33;101195.50;;;-0.67;98.05
71109;BME280;59614;51.012;-1.648;2022-12-18T00:04:00;101198.22;;;-0.64;98.42
71109;BME280;59614;51.012;-1.648;2022-12-18T00:06:28;101197.31;;;-0.64;98.19
71109;BME280;59614;51.012;-1.648;2022-12-18T00:08:56;101201.72;;;-0.62;98.91
71109;BME280;59614;51.012;-1.648;2022-12-18T00:11:24;101190.34;;;-0.65;98.78
71109;BME280;59614;51.012;-1.648;2022-12-18T00:13:51;101190.97;;;-0.71;98.74
71109;BME280;59614;51.012;-1.648;2022-12-18T00:16:19;101187.56;;;-0.70;99.95
71109;BME280;59614;51.012;-1.648;2022-12-18T00:18:46;101175.81;;;-0.62;99.58
71109;BME280;59614;51.012;-1.648;2022-12-18T00:21:12;101170.38;;;-0.68;100.00
71109;BME280;59614;51.012;-1.648;2022-12-18T00:23:39;101169.63;;;-0.65;100.00
71109;BME280;59614;51.012;-1.648;2022-12-18T00:26:09;101163.59;;;-0.64;100.00
71109;BME280;59614;51.012;-1.648;2022-12-18T00:28:35;101162.66;;;-0.66;100.00
71109;BME280;59614;51.012;-1.648;2022-12-18T00:31:07;101161.78;;;-0.67;100.00
71109;BME280;59614;51.012;-1.648;2022-12-18T00:33:33;101151.28;;;-0.70;100.00
71109;BME280;59614;51.012;-1.648;2022-12-18T00:36:07;101148.69;;;-0.70;100.00
71109;BME280;59614;51.012;-1.648;2022-12-18T00:38:33;101142.69;;;-0.69;100.00
71109;BME280;59614;51.012;-1.648;2022-12-18T00:40:59;101138.13;;;-0.74;100.00
71109;BME280;59614;51.012;-1.648;2022-12-18T00:43:26;101133.09;;;-0.71;100.00
71109;BME280;59614;51.012;-1.648;2022-12-18T00:45:52;101141.69;;;-0.72;100.00
71109;BME280;59614;51.012;-1.648;2022-12-18T00:48:17;101141.81;;;-0.69;100.00
71109;BME280;59614;51.012;-1.648;2022-12-18T00:50:43;101133.22;;;-0.68;100.00
71109;BME280;59614;51.012;-1.648;2022-12-18T00:53:11;101134.84;;;-0.70;100.00
71109;BME280;59614;51.012;-1.648;2022-12-18T00:55:38;101128.03;;;-0.68;100.00
71109;BME280;59614;51.012;-1.648;2022-12-18T00:58:04;101121.81;;;-0.72;100.00
71109;BME280;59614;51.012;-1.648;2022-12-18T01:00:29;101117.25;;;-0.78;100.00
71109;BME280;59614;51.012;-1.648;2022-12-18T01:02:55;101116.25;;;-0.81;100.00
71109;BME280;59614;51.012;-1.648;2022-12-18T01:05:20;101111.16;;;-0.80;100.00
71109;BME280;59614;51.012;-1.648;2022-12-18T01:07:45;101097.34;;;-0.79;100.00
71109;BME280;59614;51.012;-1.648;2022-12-18T01:10:12;101093.88;;;-0.79;100.00
71109;BME280;59614;51.012;-1.648;2022-12-18T01:12:38;101094.66;;;-0.82;100.00
71109;BME280;59614;51.012;-1.648;2022-12-18T01:15:05;101089.56;;;-0.79;100.00
71109;BME280;59614;51.012;-1.648;2022-12-18T01:17:32;101095.78;;;-0.75;100.00
71109;BME280;59614;51.012;-1.648;2022-12-18T01:19:57;101100.19;;;-0.72;100.00
71109;BME280;59614;51.012;-1.648;2022-12-18T01:22:23;101100.06;;;-0.75;100.00
71109;BME280;59614;51.012;-1.648;2022-12-18T01:24:48;101093.38;;;-0.70;100.00
71109;BME280;59614;51.012;-1.648;2022-12-18T01:27:13;101090.69;;;-0.72;100.00
71109;BME280;59614;51.012;-1.648;2022-12-18T01:29:39;101101.47;;;-0.63;100.00
71109;BME280;59614;51.012;-1.648;2022-12-18T01:32:04;101104.75;;;-0.67;100.00
71109;BME280;59614;51.012;-1.648;2022-12-18T01:34:30;101104.47;;;-0.73;100.00
71109;BME280;59614;51.012;-1.648;2022-12-18T01:36:56;101112.47;;;-0.68;100.00
71109;BME280;59614;51.012;-1.648;2022-12-18T01:39:21;101108.16;;;-0.68;100.00
71109;BME280;59614;51.012;-1.648;2022-12-18T01:41:47;101105.63;;;-0.66;100.00
71109;BME280;59614;51.012;-1.648;2022-12-18T01:44:56;101111.63;;;-0.67;100.00
71109;BME280;59614;51.012;-1.648;2022-12-18T01:47:41;101111.94;;;-0.59;100.00
71109;BME280;59614;51.012;-1.648;2022-12-18T01:50:13;101118.06;;;-0.57;100.00
71109;BME280;59614;51.012;-1.648;2022-12-18T01:52:44;101112.91;;;-0.57;100.00
71109;BME280;59614;51.012;-1.648;2022-12-18T01:55:12;101113.53;;;-0.63;100.00
71109;BME280;59614;51.012;-1.648;2022-12-18T01:57:40;101121.44;;;-0.60;100.00
71109;BME280;59614;51.012;-1.648;2022-12-18T02:00:20;101114.44;;;-0.63;100.00
71109;BME280;59614;51.012;-1.648;2022-12-18T02:02:46;101113.47;;;-0.65;100.00
71109;BME280;59614;51.012;-1.648;2022-12-18T02:05:15;101109.94;;;-0.67;100.00
71109;BME280;59614;51.012;-1.648;2022-12-18T02:16:24;101085.53;;;-0.72;100.00
71109;BME280;59614;51.012;-1.648;2022-12-18T02:18:58;101075.28;;;-0.69;100.00
71109;BME280;59614;51.012;-1.648;2022-12-18T02:21:28;101082.41;;;-0.63;100.00
71109;BME280;59614;51.012;-1.648;2022-12-18T02:26:36;101075.47;;;-0.64;100.00
71109;BME280;59614;51.012;-1.648;2022-12-18T02:31:31;101069.63;;;-0.58;100.00
71109;BME280;59614;51.012;-1.648;2022-12-18T02:34:02;101074.78;;;-0.60;99.71
71109;BME280;59614;51.012;-1.648;2022-12-18T02:36:28;101078.31;;;-0.58;99.64
71109;BME280;59614;51.012;-1.648;2022-12-18T02:38:55;101070.34;;;-0.63;99.34
71109;BME280;59614;51.012;-1.648;2022-12-18T02:41:24;101054.03;;;-0.60;99.63
71109;BME280;59614;51.012;-1.648;2022-12-18T02:43:56;101062.03;;;-0.54;99.58
71109;BME280;59614;51.012;-1.648;2022-12-18T02:49:04;101059.75;;;-0.46;99.15
71109;BME280;59614;51.012;-1.648;2022-12-18T02:52:09;101051.31;;;-0.40;98.75
71109;BME280;59614;51.012;-1.648;2022-12-18T02:55:00;101054.84;;;-0.38;98.45
71109;BME280;59614;51.012;-1.648;2022-12-18T02:57:54;101046.94;;;-0.41;98.44
71109;BME280;59614;51.012;-1.648;2022-12-18T03:05:41;101037.66;;;-0.36;98.13
71109;BME280;59614;51.012;-1.648;2022-12-18T03:08:13;101039.28;;;-0.38;98.13
71109;BME280;59614;51.012;-1.648;2022-12-18T03:10:43;101035.34;;;-0.28;98.12
71109;BME280;59614;51.012;-1.648;2022-12-18T03:13:14;101036.09;;;-0.31;98.08
71109;BME280;59614;51.012;-1.648;2022-12-18T03:15:48;101034.31;;;-0.32;98.25
71109;BME280;59614;51.012;-1.648;2022-12-18T03:18:21;101031.97;;;-0.26;98.04
71109;BME280;59614;51.012;-1.648;2022-12-18T03:20:50;101036.22;;;-0.28;97.81
71109;BME280;59614;51.012;-1.648;2022-12-18T03:23:21;101045.72;;;-0.28;98.14
71109;BME280;59614;51.012;-1.648;2022-12-18T03:25:49;101029.38;;;-0.26;98.38
71109;BME280;59614;51.012;-1.648;2022-12-18T03:28:21;101036.06;;;-0.33;98.36
71109;BME280;59614;51.012;-1.648;2022-12-18T03:30:50;101038.66;;;-0.33;98.14
71109;BME280;59614;51.012;-1.648;2022-12-18T03:33:24;101046.38;;;-0.34;98.25
71109;BME280;59614;51.012;-1.648;2022-12-18T03:35:51;101036.09;;;-0.31;98.69
71109;BME280;59614;51.012;-1.648;2022-12-18T03:38:17;101029.38;;;-0.26;98.39
71109;BME280;59614;51.012;-1.648;2022-12-18T03:43:30;101035.78;;;-0.16;98.55
71109;BME280;59614;51.012;-1.648;2022-12-18T03:46:01;101028.78;;;-0.19;98.39
71109;BME280;59614;51.012;-1.648;2022-12-18T03:48:41;101027.84;;;-0.21;98.54
71109;BME280;59614;51.012;-1.648;2022-12-18T03:51:18;101034.91;;;-0.17;98.35
71109;BME280;59614;51.012;-1.648;2022-12-18T03:53:52;101035.88;;;-0.14;98.38
71109;BME280;59614;51.012;-1.648;2022-12-18T03:56:22;101031.63;;;-0.12;97.92
71109;BME280;59614;51.012;-1.648;2022-12-18T03:58:52;101026.50;;;-0.09;97.88
71109;BME280;59614;51.012;-1.648;2022-12-18T04:01:22;101027.34;;;-0.10;97.88
71109;BME280;59614;51.012;-1.648;2022-12-18T04:03:49;101026.63;;;-0.06;97.62
71109;BME280;59614;51.012;-1.648;2022-12-18T04:06:15;101028.25;;;-0.10;97.67
71109;BME280;59614;51.012;-1.648;2022-12-18T04:08:42;101012.50;;;-0.14;98.01
71109;BME280;59614;51.012;-1.648;2022-12-18T04:11:08;101015.03;;;-0.16;98.23
71109;BME280;59614;51.012;-1.648;2022-12-18T04:13:35;101005.56;;;-0.16;98.06
71109;BME280;59614;51.012;-1.648;2022-12-18T04:16:01;101002.28;;;-0.10;98.28
71109;BME280;59614;51.012;-1.648;2022-12-18T04:18:27;100987.88;;;-0.02;97.94
71109;BME280;59614;51.012;-1.648;2022-12-18T04:20:52;100986.94;;;-0.04;97.90
71109;BME280;59614;51.012;-1.648;2022-12-18T04:23:18;100981.81;;;-0.02;97.51
71109;BME280;59614;51.012;-1.648;2022-12-18T04:25:43;100971.53;;;0.01;97.37
71109;BME280;59614;51.012;-1.648;2022-12-18T04:28:08;100966.69;;;0.10;96.79
71109;BME280;59614;51.012;-1.648;2022-12-18T04:30:34;100964.84;;;0.08;96.40
71109;BME280;59614;51.012;-1.648;2022-12-18T04:32:59;100950.09;;;0.07;96.40
71109;BME280;59614;51.012;-1.648;2022-12-18T04:35:25;100951.13;;;0.10;96.47
71109;BME280;59614;51.012;-1.648;2022-12-18T04:37:50;100945.06;;;0.11;96.40
71109;BME280;59614;51.012;-1.648;2022-12-18T04:40:16;100940.72;;;0.10;96.38
71109;BME280;59614;51.012;-1.648;2022-12-18T04:42:41;100939.94;;;0.13;96.13
71109;BME280;59614;51.012;-1.648;2022-12-18T04:45:07;100945.91;;;0.10;95.92
71109;BME280;59614;51.012;-1.648;2022-12-18T04:47:33;100935.69;;;0.15;95.85
71109;BME280;59614;51.012;-1.648;2022-12-18T04:49:58;100933.03;;;0.13;95.76
71109;BME280;59614;51.012;-1.648;2022-12-18T04:52:24;100928.78;;;0.15;95.45
71109;BME280;59614;51.012;-1.648;2022-12-18T04:54:50;100937.78;;;0.25;95.36
71109;BME280;59614;51.012;-1.648;2022-12-18T04:57:15;100930.13;;;0.30;94.96
71109;BME280;59614;51.012;-1.648;2022-12-18T04:59:41;100925.78;;;0.29;94.54
71109;BME280;59614;51.012;-1.648;2022-12-18T05:02:06;100911.44;;;0.40;94.14
71109;BME280;59614;51.012;-1.648;2022-12-18T05:04:31;100904.28;;;0.33;94.15
71109;BME280;59614;51.012;-1.648;2022-12-18T05:06:57;100906.94;;;0.36;93.85
71109;BME280;59614;51.012;-1.648;2022-12-18T05:09:23;100907.16;;;0.42;93.60
71109;BME280;59614;51.012;-1.648;2022-12-18T05:11:48;100907.25;;;0.45;93.33
71109;BME280;59614;51.012;-1.648;2022-12-18T05:14:14;100904.28;;;0.60;93.02
71109;BME280;59614;51.012;-1.648;2022-12-18T05:16:39;100898.34;;;0.65;92.71
71109;BME280;59614;51.012;-1.648;2022-12-18T05:19:05;100890.69;;;0.69;92.48
71109;BME280;59614;51.012;-1.648;2022-12-18T05:21:30;100897.47;;;0.93;92.22
71109;BME280;59614;51.012;-1.648;2022-12-18T05:23:56;100885.53;;;0.98;91.15
71109;BME280;59614;51.012;-1.648;2022-12-18T05:26:21;100875.97;;;0.97;91.02
71109;BME280;59614;51.012;-1.648;2022-12-18T05:28:46;100871.63;;;0.98;91.46
71109;BME280;59614;51.012;-1.648;2022-12-18T05:31:12;100863.78;;;0.96;91.52
71109;BME280;59614;51.012;-1.648;2022-12-18T05:33:38;100849.22;;;1.01;91.36
71109;BME280;59614;51.012;-1.648;2022-12-18T05:36:06;100844.88;;;1.00;91.52
71109;BME280;59614;51.012;-1.648;2022-12-18T05:38:33;100822.50;;;1.07;91.30
71109;BME280;59614;51.012;-1.648;2022-12-18T05:40:59;100818.94;;;1.03;91.88
71109;BME280;59614;51.012;-1.648;2022-12-18T05:43:26;100808.72;;;1.10;91.97
71109;BME280;59614;51.012;-1.648;2022-12-18T05:45:52;100806.13;;;1.10;92.23
71109;BME280;59614;51.012;-1.648;2022-12-18T05:48:19;100805.84;;;1.31;91.52
71109;BME280;59614;51.012;-1.648;2022-12-18T05:50:45;100794.53;;;1.29;91.55
71109;BME280;59614;51.012;-1.648;2022-12-18T05:53:13;100793.72;;;1.31;91.95
71109;BME280;59614;51.012;-1.648;2022-12-18T05:55:41;100791.22;;;1.34;91.44
71109;BME280;59614;51.012;-1.648;2022-12-18T05:58:08;100787.00;;;1.39;92.14
71109;BME280;59614;51.012;-1.648;2022-12-18T06:00:36;100783.88;;;1.51;91.34
71109;BME280;59614;51.012;-1.648;2022-12-18T06:03:05;100784.88;;;1.58;91.30
71109;BME280;59614;51.012;-1.648;2022-12-18T06:05:35;100790.16;;;1.61;91.58
71109;BME280;59614;51.012;-1.648;2022-12-18T06:08:01;100784.34;;;1.70;91.05
71109;BME280;59614;51.012;-1.648;2022-12-18T06:10:27;100781.84;;;1.75;90.90
71109;BME280;59614;51.012;-1.648;2022-12-18T06:12:52;100778.53;;;1.82;91.32
71109;BME280;59614;51.012;-1.648;2022-12-18T06:15:18;100775.81;;;1.76;91.70
71109;BME280;59614;51.012;-1.648;2022-12-18T06:17:43;100788.19;;;1.86;91.60
71109;BME280;59614;51.012;-1.648;2022-12-18T06:20:09;100791.97;;;1.99;91.23
71109;BME280;59614;51.012;-1.648;2022-12-18T06:22:34;100792.91;;;2.01;91.17
71109;BME280;59614;51.012;-1.648;2022-12-18T06:25:00;100794.53;;;1.96;91.24
71109;BME280;59614;51.012;-1.648;2022-12-18T06:27:25;100785.16;;;2.03;91.16
71109;BME280;59614;51.012;-1.648;2022-12-18T06:29:51;100778.34;;;2.09;90.46
71109;BME280;59614;51.012;-1.648;2022-12-18T06:32:17;100776.66;;;2.11;90.36
71109;BME280;59614;51.012;-1.648;2022-12-18T06:34:42;100764.66;;;2.18;90.31
71109;BME280;59614;51.012;-1.648;2022-12-18T06:37:08;100776.09;;;2.23;90.13
71109;BME280;59614;51.012;-1.648;2022-12-18T06:39:33;100776.00;;;2.20;90.35
71109;BME280;59614;51.012;-1.648;2022-12-18T06:41:58;100783.91;;;2.25;89.61
71109;BME280;59614;51.012;-1.648;2022-12-18T06:44:24;100778.78;;;2.28;89.32
71109;BME280;59614;51.012;-1.648;2022-12-18T06:46:49;100789.41;;;2.36;89.29
71109;BME280;59614;51.012;-1.648;2022-12-18T06:49:15;100781.50;;;2.33;88.88
71109;BME280;59614;51.012;-1.648;2022-12-18T06:51:41;100782.34;;;2.31;89.17
71109;BME280;59614;51.012;-1.648;2022-12-18T06:54:06;100778.97;;;2.36;88.43
71109;BME280;59614;51.012;-1.648;2022-12-18T06:56:32;100780.56;;;2.30;88.53
71109;BME280;59614;51.012;-1.648;2022-12-18T06:58:57;100779.84;;;2.36;88.67
71109;BME280;59614;51.012;-1.648;2022-12-18T07:01:22;100781.53;;;2.34;88.61
71109;BME280;59614;51.012;-1.648;2022-12-18T07:03:52;100784.22;;;2.39;88.18
71109;BME280;59614;51.012;-1.648;2022-12-18T07:06:20;100785.16;;;2.41;87.74
71109;BME280;59614;51.012;-1.648;2022-12-18T07:08:47;100786.16;;;2.46;87.24
71109;BME280;59614;51.012;-1.648;2022-12-18T07:11:13;100769.69;;;2.49;87.74
71109;BME280;59614;51.012;-1.648;2022-12-18T07:13:39;100787.03;;;2.48;87.72
71109;BME280;59614;51.012;-1.648;2022-12-18T07:16:12;100786.81;;;2.37;87.64
71109;BME280;59614;51.012;-1.648;2022-12-18T07:18:38;100785.97;;;2.38;87.57
71109;BME280;59614;51.012;-1.648;2022-12-18T07:21:05;100783.31;;;2.37;87.89
71109;BME280;59614;51.012;-1.648;2022-12-18T07:23:32;100787.78;;;2.42;87.93
71109;BME280;59614;51.012;-1.648;2022-12-18T07:26:01;100793.69;;;2.34;88.42
71109;BME280;59614;51.012;-1.648;2022-12-18T07:28:27;100772.00;;;2.35;88.72
71109;BME280;59614;51.012;-1.648;2022-12-18T07:30:53;100763.19;;;2.29;88.92
71109;BME280;59614;51.012;-1.648;2022-12-18T07:33:18;100758.78;;;2.27;88.74
71109;BME280;59614;51.012;-1.648;2022-12-18T07:35:44;100760.38;;;2.20;89.15
71109;BME280;59614;51.012;-1.648;2022-12-18T07:38:09;100758.72;;;2.24;89.60
71109;BME280;59614;51.012;-1.648;2022-12-18T07:40:35;100756.13;;;2.24;89.21
71109;BME280;59614;51.012;-1.648;2022-12-18T07:43:00;100765.56;;;2.19;89.56
71109;BME280;59614;51.012;-1.648;2022-12-18T07:45:25;100773.47;;;2.23;90.10
71109;BME280;59614;51.012;-1.648;2022-12-18T07:47:51;100764.78;;;2.23;89.91
71109;BME280;59614;51.012;-1.648;2022-12-18T07:50:16;100755.19;;;2.22;89.96
71109;BME280;59614;51.012;-1.648;2022-12-18T07:52:42;100763.06;;;2.23;89.75
71109;BME280;59614;51.012;-1.648;2022-12-18T07:55:07;100766.63;;;2.28;90.05
71109;BME280;59614;51.012;-1.648;2022-12-18T07:57:33;100781.41;;;2.28;89.90
71109;BME280;59614;51.012;-1.648;2022-12-18T07:59:59;100785.53;;;2.20;90.50
71109;BME280;59614;51.012;-1.648;2022-12-18T08:02:24;100765.69;;;2.25;90.65
71109;BME280;59614;51.012;-1.648;2022-12-18T08:04:50;100774.31;;;2.22;90.49
71109;BME280;59614;51.012;-1.648;2022-12-18T08:07:15;100775.25;;;2.26;90.64
71109;BME280;59614;51.012;-1.648;2022-12-18T08:09:40;100766.56;;;2.25;90.35
71109;BME280;59614;51.012;-1.648;2022-12-18T08:12:06;100768.31;;;2.26;90.76
71109;BME280;59614;51.012;-1.648;2022-12-18T08:14:31;100768.31;;;2.26;90.93
71109;BME280;59614;51.012;-1.648;2022-12-18T08:16:57;100779.66;;;2.28;90.71
71109;BME280;59614;51.012;-1.648;2022-12-18T08:19:23;100792.75;;;2.31;90.98
71109;BME280;59614;51.012;-1.648;2022-12-18T08:21:48;100802.25;;;2.29;91.42
71109;BME280;59614;51.012;-1.648;2022-12-18T08:24:13;100805.56;;;2.22;92.53
71109;BME280;59614;51.012;-1.648;2022-12-18T08:26:39;100794.22;;;2.20;92.61
71109;BME280;59614;51.012;-1.648;2022-12-18T08:29:04;100800.06;;;2.10;93.68
71109;BME280;59614;51.012;-1.648;2022-12-18T08:31:30;100807.69;;;2.02;94.68
71109;BME280;59614;51.012;-1.648;2022-12-18T08:33:56;100803.22;;;1.96;95.37
71109;BME280;59614;51.012;-1.648;2022-12-18T08:36:23;100791.72;;;1.88;96.48
71109;BME280;59614;51.012;-1.648;2022-12-18T08:38:49;100784.75;;;1.87;96.44
71109;BME280;59614;51.012;-1.648;2022-12-18T08:41:15;100781.22;;;1.85;97.19
71109;BME280;59614;51.012;-1.648;2022-12-18T08:43:41;100767.25;;;1.80;97.65
71109;BME280;59614;51.012;-1.648;2022-12-18T08:46:26;100768.84;;;1.75;98.89
71109;BME280;59614;51.012;-1.648;2022-12-18T08:48:53;100775.72;;;1.73;99.19
71109;BME280;59614;51.012;-1.648;2022-12-18T08:51:20;100776.75;;;1.79;99.39
71109;BME280;59614;51.012;-1.648;2022-12-18T08:53:46;100780.19;;;1.78;99.31
71109;BME280;59614;51.012;-1.648;2022-12-18T08:56:12;100786.31;;;1.79;99.79
71109;BME280;59614;51.012;-1.648;2022-12-18T08:58:38;100771.53;;;1.78;100.00
71109;BME280;59614;51.012;-1.648;2022-12-18T09:01:05;100764.44;;;1.72;100.00
71109;BME280;59614;51.012;-1.648;2022-12-18T09:03:32;100755.75;;;1.72;100.00
71109;BME280;59614;51.012;-1.648;2022-12-18T09:05:58;100751.47;;;1.74;100.00
71109;BME280;59614;51.012;-1.648;2022-12-18T09:08:24;100747.19;;;1.76;100.00
71109;BME280;59614;51.012;-1.648;2022-12-18T09:10:50;100743.75;;;1.78;100.00
71109;BME280;59614;51.012;-1.648;2022-12-18T09:13:17;100738.56;;;1.78;100.00
71109;BME280;59614;51.012;-1.648;2022-12-18T09:15:51;100731.56;;;1.76;100.00
71109;BME280;59614;51.012;-1.648;2022-12-18T09:18:18;100728.25;;;1.83;100.00
71109;BME280;59614;51.012;-1.648;2022-12-18T09:20:44;100724.81;;;1.84;100.00
71109;BME280;59614;51.012;-1.648;2022-12-18T09:23:10;100723.84;;;1.79;100.00
71109;BME280;59614;51.012;-1.648;2022-12-18T09:25:37;100724.59;;;1.75;100.00
71109;BME280;59614;51.012;-1.648;2022-12-18T09:28:06;100717.78;;;1.80;100.00
71109;BME280;59614;51.012;-1.648;2022-12-18T09:30:37;100723.88;;;1.82;100.00
71109;BME280;59614;51.012;-1.648;2022-12-18T09:33:03;100720.41;;;1.80;100.00
71109;BME280;59614;51.012;-1.648;2022-12-18T09:35:28;100713.44;;;1.79;100.00
71109;BME280;59614;51.012;-1.648;2022-12-18T09:37:54;100705.97;;;1.94;100.00
71109;BME280;59614;51.012;-1.648;2022-12-18T09:40:22;100695.44;;;1.88;100.00
71109;BME280;59614;51.012;-1.648;2022-12-18T09:42:54;100698.94;;;1.90;100.00
71109;BME280;59614;51.012;-1.648;2022-12-18T09:45:21;100701.69;;;1.96;100.00
71109;BME280;59614;51.012;-1.648;2022-12-18T09:47:48;100703.34;;;1.93;100.00
71109;BME280;59614;51.012;-1.648;2022-12-18T09:50:28;100707.72;;;1.95;100.00
71109;BME280;59614;51.012;-1.648;2022-12-18T09:52:58;100702.72;;;2.05;100.00
71109;BME280;59614;51.012;-1.648;2022-12-18T09:55:32;100706.88;;;1.96;100.00
71109;BME280;59614;51.012;-1.648;2022-12-18T09:58:06;100708.72;;;2.00;100.00
71109;BME280;59614;51.012;-1.648;2022-12-18T10:00:35;100713.13;;;2.03;100.00
71109;BME280;59614;51.012;-1.648;2022-12-18T10:03:09;100716.47;;;1.99;100.00
71109;BME280;59614;51.012;-1.648;2022-12-18T10:10:52;100688.81;;;2.03;100.00
71109;BME280;59614;51.012;-1.648;2022-12-18T10:13:27;100691.34;;;1.99;100.00
71109;BME280;59614;51.012;-1.648;2022-12-18T10:21:21;100690.78;;;2.13;100.00
71109;BME280;59614;51.012;-1.648;2022-12-18T10:24:04;100691.66;;;2.15;100.00
71109;BME280;59614;51.012;-1.648;2022-12-18T10:26:33;100690.91;;;2.19;100.00
71109;BME280;59614;51.012;-1.648;2022-12-18T10:28:59;100696.88;;;2.15;100.00
71109;BME280;59614;51.012;-1.648;2022-12-18T10:31:25;100687.44;;;2.19;100.00
71109;BME280;59614;51.012;-1.648;2022-12-18T10:33:53;100678.91;;;2.26;100.00
71109;BME280;59614;51.012;-1.648;2022-12-18T10:36:20;100669.41;;;2.29;100.00
71109;BME280;59614;51.012;-1.648;2022-12-18T10:38:45;100653.72;;;2.26;100.00
71109;BME280;59614;51.012;-1.648;2022-12-18T10:43:42;100634.66;;;2.27;100.00
71109;BME280;59614;51.012;-1.648;2022-12-18T10:51:06;100623.47;;;2.33;100.00
71109;BME280;59614;51.012;-1.648;2022-12-18T10:53:34;100614.91;;;2.39;100.00
71109;BME280;59614;51.012;-1.648;2022-12-18T10:56:00;100607.16;;;2.42;100.00
71109;BME280;59614;51.012;-1.648;2022-12-18T10:58:33;100599.41;;;2.45;100.00
71109;BME280;59614;51.012;-1.648;2022-12-18T11:01:09;100589.94;;;2.50;100.00
71109;BME280;59614;51.012;-1.648;2022-12-18T11:08:42;100577.19;;;2.64;100.00
71109;BME280;59614;51.012;-1.648;2022-12-18T11:11:20;100572.84;;;2.65;100.00
71109;BME280;59614;51.012;-1.648;2022-12-18T11:16:19;100568.84;;;2.84;100.00
71109;BME280;59614;51.012;-1.648;2022-12-18T11:18:44;100567.97;;;2.83;100.00
71109;BME280;59614;51.012;-1.648;2022-12-18T11:21:11;100555.97;;;2.91;100.00
71109;BME280;59614;51.012;-1.648;2022-12-18T11:23:54;100543.91;;;2.98;100.00
71109;BME280;59614;51.012;-1.648;2022-12-18T11:26:19;100530.88;;;2.98;100.00
71109;BME280;59614;51.012;-1.648;2022-12-18T11:28:49;100544.97;;;3.09;100.00
71109;BME280;59614;51.012;-1.648;2022-12-18T11:31:22;100534.56;;;3.13;100.00
71109;BME280;59614;51.012;-1.648;2022-12-18T11:36:46;100516.50;;;3.27;100.00
71109;BME280;59614;51.012;-1.648;2022-12-18T11:39:20;100520.06;;;3.32;100.00
71109;BME280;59614;51.012;-1.648;2022-12-18T11:41:54;100509.69;;;3.35;100.00
71109;BME280;59614;51.012;-1.648;2022-12-18T11:50:05;100497.72;;;3.51;100.00
71109;BME280;59614;51.012;-1.648;2022-12-18T11:52:38;100483.03;;;3.59;100.00
71109;BME280;59614;51.012;-1.648;2022-12-18T11:55:11;100472.59;;;3.61;100.00
71109;BME280;59614;51.012;-1.648;2022-12-18T11:57:49;100476.28;;;3.74;100.00
71109;BME280;59614;51.012;-1.648;2022-12-18T12:00:18;100471.00;;;3.72;100.00
71109;BME280;59614;51.012;-1.648;2022-12-18T12:11:07;100440.78;;;3.91;100.00
71109;BME280;59614;51.012;-1.648;2022-12-18T12:21:43;100412.22;;;4.05;100.00
71109;BME280;59614;51.012;-1.648;2022-12-18T12:35:20;100380.13;;;4.22;100.00
71109;BME280;59614;51.012;-1.648;2022-12-18T12:40:23;100376.72;;;4.29;100.00
71109;BME280;59614;51.012;-1.648;2022-12-18T12:42:54;100371.53;;;4.33;100.00
71109;BME280;59614;51.012;-1.648;2022-12-18T12:45:47;100368.03;;;4.33;100.00
71109;BME280;59614;51.012;-1.648;2022-12-18T12:48:44;100386.38;;;4.39;100.00
71109;BME280;59614;51.012;-1.648;2022-12-18T12:51:26;100360.28;;;4.42;100.00
71109;BME280;59614;51.012;-1.648;2022-12-18T12:53:54;100348.97;;;4.42;100.00
71109;BME280;59614;51.012;-1.648;2022-12-18T12:56:22;100358.59;;;4.51;100.00
71109;BME280;59614;51.012;-1.648;2022-12-18T13:04:21;100347.34;;;4.64;100.00
71109;BME280;59614;51.012;-1.648;2022-12-18T13:07:05;100340.41;;;4.68;100.00
71109;BME280;59614;51.012;-1.648;2022-12-18T13:09:32;100331.69;;;4.69;100.00
71109;BME280;59614;51.012;-1.648;2022-12-18T13:12:03;100337.00;;;4.79;100.00
71109;BME280;59614;51.012;-1.648;2022-12-18T13:14:48;100333.53;;;4.81;100.00
71109;BME280;59614;51.012;-1.648;2022-12-18T13:19:49;100338.81;;;4.93;100.00
71109;BME280;59614;51.012;-1.648;2022-12-18T13:24:47;100336.25;;;5.01;100.00
71109;BME280;59614;51.012;-1.648;2022-12-18T13:38:43;100306.72;;;5.40;100.00
71109;BME280;59614;51.012;-1.648;2022-12-18T13:43:52;100291.03;;;5.44;100.00
71109;BME280;59614;51.012;-1.648;2022-12-18T13:49:24;100291.06;;;5.57;100.00
71109;BME280;59614;51.012;-1.648;2022-12-18T13:51:55;100285.84;;;5.56;100.00
71109;BME280;59614;51.012;-1.648;2022-12-18T13:54:34;100267.53;;;5.62;100.00
71109;BME280;59614;51.012;-1.648;2022-12-18T13:57:01;100265.78;;;5.70;100.00
71109;BME280;59614;51.012;-1.648;2022-12-18T13:59:38;100261.41;;;5.74;100.00
71109;BME280;59614;51.012;-1.648;2022-12-18T14:02:17;100250.97;;;5.82;100.00
71109;BME280;59614;51.012;-1.648;2022-12-18T14:04:47;100248.34;;;5.90;100.00
71109;BME280;59614;51.012;-1.648;2022-12-18T14:07:18;100244.81;;;5.94;100.00
71109;BME280;59614;51.012;-1.648;2022-12-18T14:09:49;100233.47;;;5.95;100.00
71109;BME280;59614;51.012;-1.648;2022-12-18T14:12:19;100228.25;;;5.99;100.00
71109;BME280;59614;51.012;-1.648;2022-12-18T14:15:06;100230.03;;;6.03;100.00
71109;BME280;59614;51.012;-1.648;2022-12-18T14:17:39;100230.03;;;6.07;100.00
71109;BME280;59614;51.012;-1.648;2022-12-18T14:20:13;100219.53;;;6.03;100.00
71109;BME280;59614;51.012;-1.648;2022-12-18T14:22:43;100213.41;;;6.14;100.00
71109;BME280;59614;51.012;-1.648;2022-12-18T14:25:23;100213.41;;;6.15;100.00
71109;BME280;59614;51.012;-1.648;2022-12-18T14:30:32;100214.28;;;6.21;100.00
71109;BME280;59614;51.012;-1.648;2022-12-18T14:33:01;100204.66;;;6.24;100.00
71109;BME280;59614;51.012;-1.648;2022-12-18T14:35:27;100199.41;;;6.24;100.00
71109;BME280;59614;51.012;-1.648;2022-12-18T14:37:53;100199.41;;;6.27;100.00
71109;BME280;59614;51.012;-1.648;2022-12-18T14:40:19;100191.56;;;6.27;100.00
71109;BME280;59614;51.012;-1.648;2022-12-18T14:42:44;100200.28;;;6.34;100.00
71109;BME280;59614;51.012;-1.648;2022-12-18T14:45:42;100196.75;;;6.38;100.00
71109;BME280;59614;51.012;-1.648;2022-12-18T14:48:20;100189.75;;;6.43;100.00
71109;BME280;59614;51.012;-1.648;2022-12-18T14:51:01;100201.97;;;6.47;100.00